Manley Hot Springs, Alaska
Current Conditions -  °F | °C
As of 11:52 PM on Wednesday 22 Oct 2014 (Local Time) from PATA Reporting Station
Overcast Overcast  
Wind Chill: 21°   Ceiling: 6500
Heat Index: 26°   Visibility: 10mi
Dew Point: 20°   Wind: 5mph
Humidity: 78%   Direction: 330°NNW
Pressure: 29.79"   Gusts: NA
Location:  65°N, 150.64°W
Report Text: PATA 230752Z AUTO 33004KT 10SM OVC065 M03/M07 A2979 RMK AO2 SLP093 T10331067 TSNO
Loading
Personal Weather Stations






























Interactive Weather Map
Tropical Storm Tracking
New forecast layout! Learn more

10-Day Weather Forecast

Advertisements
Track Severe Weather on mobile